»·PEaware :: ASA3306 KLAX-KSEA

ASA3306 :: KLAX-KSEA

FLIGHT INFORMATION

Flight Status: Arrived
Operator:
Alaska Airlines
More flights by this operator :: More flights under this callsign
Pilot: Anonymous 9350 (9350)
Aircraft: AIRBUS A320
(A320)
More flights by this aircraft type
Origin: KLAX Los Angeles Intl
United States
Destination: KSEA Seattle-Tacoma Intl
United States
More flights between these airports :: More routes between these airports
Route: LADYJ4 CSTRO SHIMR BTG HAWKZ7
File this flight plan on PilotEdge
Remarks: Using default MS2020 aircraft with VERY basic MCDU options. Apologies if I need vectoring.
Altitude:
(Current/Filed)
34,000ft
Speed:
(Current/Filed)
461kts
Departed: 13-Feb-21 12:24 PM
Arrived: 13-Feb-21 03:13 PM
Distance/Time
Traveled:
829nm/2:49
Distance/Time
To Go:
Arrived

Flight Plot

Page will automatically refresh every two minutes.

Flight plan parsing failed; only flown route is shown


Map Options




Map Legend


Flown Route
Filed Route
Departure Airport
Arrival Airport
Navaid (VOR, NDB)
Fix

Horizontal Profiles

Position Reports

Time Latitude Longitude Heading Altitude Ground
Speed
13-Feb-21 11:55 33.941011 -118.401399 266 125ft 0kts
13-Feb-21 11:56 33.941011 -118.401399 266 125ft 0kts
13-Feb-21 11:57 33.941011 -118.401399 266 125ft 0kts
13-Feb-21 11:58 33.941011 -118.401399 266 125ft 0kts
13-Feb-21 11:59 33.941011 -118.401399 266 125ft 0kts
13-Feb-21 12:00 33.941011 -118.401399 266 125ft 0kts
13-Feb-21 12:01 33.941011 -118.401399 266 125ft 0kts
13-Feb-21 12:02 33.941011 -118.401399 266 124ft 0kts
13-Feb-21 12:03 33.941011 -118.401399 266 124ft 0kts
13-Feb-21 12:04 33.941011 -118.401399 266 124ft 0kts
13-Feb-21 12:05 33.941011 -118.401399 266 124ft 0kts
13-Feb-21 12:06 33.941011 -118.401399 266 124ft 0kts
13-Feb-21 12:07 33.941011 -118.401399 266 124ft 0kts
13-Feb-21 12:08 33.941011 -118.401399 266 124ft 0kts
13-Feb-21 12:09 33.941011 -118.401399 266 124ft 0kts
13-Feb-21 12:10 33.941011 -118.401399 266 124ft 0kts
13-Feb-21 12:11 33.941011 -118.401399 266 124ft 0kts
13-Feb-21 12:12 33.941011 -118.401399 266 124ft 0kts
13-Feb-21 12:13 33.941011 -118.401399 266 124ft 0kts
13-Feb-21 12:14 33.941356 -118.400811 181 124ft 2kts
13-Feb-21 12:15 33.941379 -118.400810 181 124ft 0kts
13-Feb-21 12:16 33.941379 -118.400810 181 124ft 0kts
13-Feb-21 12:17 33.940380 -118.400689 173 124ft 0kts
13-Feb-21 12:18 33.939215 -118.400502 161 124ft 11kts
13-Feb-21 12:19 33.939267 -118.395225 83 124ft 19kts
13-Feb-21 12:20 33.939947 -118.388608 82 124ft 21kts
13-Feb-21 12:21 33.940607 -118.382133 84 124ft 6kts
13-Feb-21 12:22 33.940536 -118.380026 158 124ft 6kts
13-Feb-21 12:23 33.938056 -118.397557 263 204ft 153kts
13-Feb-21 12:24 33.932329 -118.457779 265 2792ft 201kts
13-Feb-21 12:25 33.925900 -118.534918 269 5417ft 254kts
13-Feb-21 12:26 33.926826 -118.617991 307 7802ft 243kts
13-Feb-21 12:27 33.979385 -118.666828 339 9288ft 240kts
13-Feb-21 12:28 34.052627 -118.672989 359 11669ft 297kts
13-Feb-21 12:29 34.136101 -118.656488 3 14015ft 307kts
13-Feb-21 12:30 34.219683 -118.638921 353 17010ft 302kts
13-Feb-21 12:31 34.303223 -118.646176 344 19493ft 304kts
13-Feb-21 12:32 34.387810 -118.664159 341 21650ft 311kts
13-Feb-21 12:33 34.474820 -118.681996 342 23530ft 322kts
13-Feb-21 12:34 34.564515 -118.699820 343 25412ft 331kts
13-Feb-21 12:35 34.656055 -118.718768 343 27112ft 336kts
13-Feb-21 12:36 34.743492 -118.755123 331 28644ft 331kts
13-Feb-21 12:37 34.825853 -118.806932 330 30083ft 334kts
13-Feb-21 12:38 34.907907 -118.861901 328 31509ft 337kts
13-Feb-21 12:39 34.990882 -118.918336 328 32869ft 343kts
13-Feb-21 12:40 35.074300 -118.975665 327 33956ft 341kts
13-Feb-21 12:41 35.158024 -119.033665 328 34073ft 346kts
13-Feb-21 12:42 35.241466 -119.091523 328 34082ft 343kts
13-Feb-21 12:43 35.324450 -119.149222 328 34085ft 344kts
13-Feb-21 12:44 35.407453 -119.207038 328 34087ft 340kts
13-Feb-21 12:45 35.497540 -119.245613 338 34085ft 345kts
13-Feb-21 12:46 35.590531 -119.276048 339 34082ft 344kts
13-Feb-21 12:47 35.682952 -119.304668 340 34106ft 343kts
13-Feb-21 12:48 35.775814 -119.332924 340 34108ft 342kts
13-Feb-21 12:49 35.868099 -119.360840 340 34108ft 341kts
13-Feb-21 12:50 35.960226 -119.388697 340 34106ft 340kts
13-Feb-21 12:51 36.052461 -119.416638 340 34066ft 340kts
13-Feb-21 12:52 36.144389 -119.444515 340 34061ft 340kts
13-Feb-21 12:53 36.236333 -119.472469 340 34103ft 339kts
13-Feb-21 12:54 36.327912 -119.500359 340 34107ft 339kts
13-Feb-21 12:55 36.420342 -119.528778 341 34102ft 343kts
13-Feb-21 12:56 36.512871 -119.557000 341 34072ft 342kts
13-Feb-21 12:57 36.605156 -119.585268 341 34054ft 341kts
13-Feb-21 12:58 36.697705 -119.613718 341 34058ft 342kts
13-Feb-21 12:59 36.789897 -119.642106 341 34093ft 341kts
13-Feb-21 13:00 36.881338 -119.670229 341 34098ft 335kts
13-Feb-21 13:01 36.972457 -119.698581 341 34097ft 339kts
13-Feb-21 13:02 37.063847 -119.726950 341 34108ft 338kts
13-Feb-21 13:03 37.155107 -119.755408 341 34146ft 339kts
13-Feb-21 13:04 37.246218 -119.783840 341 34143ft 336kts
13-Feb-21 13:05 37.337423 -119.812335 341 34175ft 339kts
13-Feb-21 13:06 37.428761 -119.841050 341 34151ft 339kts
13-Feb-21 13:07 37.520436 -119.869854 340 34119ft 336kts
13-Feb-21 13:08 37.612034 -119.898734 341 34151ft 341kts
13-Feb-21 13:09 37.704012 -119.927709 341 34141ft 338kts
13-Feb-21 13:11 37.795869 -119.956986 341 34166ft 344kts
13-Feb-21 13:12 37.888625 -119.986495 343 34139ft 340kts
13-Feb-21 13:13 37.981001 -120.015850 342 34144ft 345kts
13-Feb-21 13:14 38.073812 -120.045462 342 34122ft 344kts
13-Feb-21 13:15 38.167015 -120.075268 342 34139ft 344kts
13-Feb-21 13:16 38.260125 -120.104116 343 34111ft 344kts
13-Feb-21 13:17 38.353864 -120.131903 343 34065ft 344kts
13-Feb-21 13:18 38.447731 -120.159687 343 34079ft 346kts
13-Feb-21 13:19 38.541879 -120.187805 342 34027ft 342kts
13-Feb-21 13:20 38.635240 -120.215570 343 34137ft 345kts
13-Feb-21 13:21 38.729233 -120.243641 343 34169ft 347kts
13-Feb-21 13:22 38.822504 -120.271715 343 34173ft 338kts
13-Feb-21 13:23 38.915648 -120.299621 343 34184ft 346kts
13-Feb-21 13:24 39.009568 -120.327860 343 34187ft 346kts
13-Feb-21 13:24 39.087484 -120.351356 343 34141ft 349kts
13-Feb-21 13:25 39.181564 -120.379810 343 34003ft 345kts
13-Feb-21 13:27 39.290918 -120.413346 343 33943ft 345kts
13-Feb-21 13:28 39.384426 -120.441638 342 33990ft 347kts
13-Feb-21 13:28 39.462604 -120.465313 342 34031ft 348kts
13-Feb-21 13:30 39.572004 -120.498720 342 34013ft 345kts
13-Feb-21 13:30 39.650362 -120.522725 342 34033ft 346kts
13-Feb-21 13:31 39.744106 -120.551532 342 34169ft 347kts
13-Feb-21 13:32 39.837595 -120.580367 342 34161ft 346kts
13-Feb-21 13:33 39.932062 -120.609557 342 34204ft 347kts
13-Feb-21 13:34 40.025455 -120.638618 342 34172ft 352kts
13-Feb-21 13:35 40.119942 -120.668002 342 33997ft 346kts
13-Feb-21 13:36 40.213315 -120.697446 342 33966ft 346kts
13-Feb-21 13:37 40.307007 -120.726725 342 33963ft 346kts
13-Feb-21 13:38 40.401269 -120.756293 342 33970ft 347kts
13-Feb-21 13:39 40.494943 -120.785599 342 33968ft 348kts
13-Feb-21 13:40 40.589429 -120.815358 342 33971ft 346kts
13-Feb-21 13:41 40.683093 -120.844970 342 33961ft 345kts
13-Feb-21 13:42 40.777218 -120.874841 341 34041ft 345kts
13-Feb-21 13:43 40.871134 -120.904707 341 34206ft 348kts
13-Feb-21 13:44 40.965253 -120.934697 341 34199ft 346kts
13-Feb-21 13:45 41.058753 -120.964617 341 34209ft 346kts
13-Feb-21 13:46 41.152462 -120.994661 341 34209ft 344kts
13-Feb-21 13:47 41.245398 -121.024570 341 34189ft 344kts
13-Feb-21 13:48 41.338599 -121.054730 340 34224ft 343kts
13-Feb-21 13:49 41.431795 -121.084898 340 34232ft 344kts
13-Feb-21 13:50 41.524569 -121.115073 340 34230ft 343kts
13-Feb-21 13:51 41.617325 -121.145352 340 34238ft 343kts
13-Feb-21 13:52 41.710340 -121.175766 340 34236ft 343kts
13-Feb-21 13:53 41.802913 -121.206162 340 34211ft 342kts
13-Feb-21 13:54 41.895709 -121.236785 340 34116ft 345kts
13-Feb-21 13:55 41.988713 -121.267298 340 33975ft 343kts
13-Feb-21 13:56 42.081572 -121.297858 340 33936ft 345kts
13-Feb-21 13:57 42.174574 -121.328686 340 33968ft 343kts
13-Feb-21 13:58 42.267667 -121.359788 340 33972ft 345kts
13-Feb-21 13:59 42.360479 -121.390743 339 34151ft 346kts
13-Feb-21 14:00 42.453796 -121.422109 340 34169ft 342kts
13-Feb-21 14:01 42.546733 -121.453285 340 34136ft 345kts
13-Feb-21 14:02 42.639930 -121.484702 340 34155ft 345kts
13-Feb-21 14:03 42.733148 -121.516216 340 34164ft 347kts
13-Feb-21 14:04 42.826307 -121.547826 340 34136ft 345kts
13-Feb-21 14:05 42.920091 -121.579699 339 34142ft 346kts
13-Feb-21 14:06 43.013419 -121.611514 339 34136ft 346kts
13-Feb-21 14:07 43.106906 -121.643478 339 34126ft 346kts
13-Feb-21 14:08 43.200796 -121.675693 339 34130ft 345kts
13-Feb-21 14:09 43.294011 -121.707804 339 34122ft 345kts
13-Feb-21 14:10 43.387468 -121.740036 339 34139ft 345kts
13-Feb-21 14:11 43.480938 -121.772428 339 34123ft 346kts
13-Feb-21 14:12 43.573779 -121.804667 338 34059ft 341kts
13-Feb-21 14:13 43.666320 -121.836943 338 34126ft 343kts
13-Feb-21 14:14 43.758705 -121.869199 338 34100ft 341kts
13-Feb-21 14:15 43.851012 -121.901575 338 34117ft 341kts
13-Feb-21 14:16 43.942476 -121.933782 337 34109ft 340kts
13-Feb-21 14:17 44.033998 -121.966142 337 34165ft 339kts
13-Feb-21 14:18 44.124721 -121.998315 337 34153ft 335kts
13-Feb-21 14:19 44.214959 -122.030435 337 34139ft 335kts
13-Feb-21 14:20 44.304187 -122.062429 338 34099ft 330kts
13-Feb-21 14:21 44.393863 -122.094312 337 34173ft 330kts
13-Feb-21 14:22 44.482576 -122.125836 336 34182ft 328kts
13-Feb-21 14:23 44.570675 -122.157976 336 34173ft 329kts
13-Feb-21 14:24 44.659092 -122.190142 336 34157ft 328kts
13-Feb-21 14:25 44.743994 -122.220774 337 33973ft 316kts
13-Feb-21 14:26 44.826573 -122.251076 335 34106ft 322kts
13-Feb-21 14:27 44.913767 -122.282486 336 34105ft 321kts
13-Feb-21 14:28 45.001139 -122.314349 336 34173ft 326kts
13-Feb-21 14:29 45.087432 -122.346002 335 34157ft 321kts
13-Feb-21 14:30 45.172912 -122.377495 335 34199ft 319kts
13-Feb-21 14:31 45.258526 -122.408925 335 34131ft 317kts
13-Feb-21 14:32 45.344140 -122.440627 335 34126ft 317kts
13-Feb-21 14:33 45.429385 -122.472243 335 34132ft 315kts
13-Feb-21 14:34 45.514680 -122.504156 335 33337ft 323kts
13-Feb-21 14:35 45.601907 -122.536790 335 31535ft 319kts
13-Feb-21 14:36 45.687738 -122.569019 335 29732ft 322kts
13-Feb-21 14:37 45.777461 -122.598033 340 27954ft 339kts
13-Feb-21 14:38 45.871743 -122.622537 342 26164ft 344kts
13-Feb-21 14:39 45.966184 -122.645967 343 24958ft 346kts
13-Feb-21 14:40 46.061271 -122.669268 344 23780ft 346kts
13-Feb-21 14:41 46.156498 -122.689826 345 22824ft 345kts
13-Feb-21 14:42 46.251085 -122.708669 346 21852ft 343kts
13-Feb-21 14:43 46.345138 -122.721377 351 20199ft 333kts
13-Feb-21 14:44 46.436024 -122.726309 353 18406ft 321kts
13-Feb-21 14:45 46.524139 -122.729816 354 16748ft 308kts
13-Feb-21 14:46 46.610995 -122.732935 354 15751ft 315kts
13-Feb-21 14:47 46.692905 -122.735799 354 14821ft 314kts
13-Feb-21 14:48 46.779815 -122.726334 16 13850ft 320kts
13-Feb-21 14:49 46.855291 -122.657974 34 13223ft 323kts
13-Feb-21 14:50 46.924692 -122.581771 25 12297ft 297kts
13-Feb-21 14:51 46.999483 -122.535787 15 11610ft 291kts
13-Feb-21 14:52 47.077151 -122.503704 7 10964ft 289kts
13-Feb-21 14:53 47.155583 -122.486069 3 10098ft 281kts
13-Feb-21 14:55 47.233711 -122.473458 2 9697ft 284kts
13-Feb-21 14:56 47.317720 -122.460821 2 9197ft 304kts
13-Feb-21 14:57 47.402240 -122.454839 357 7958ft 302kts
13-Feb-21 14:58 47.482146 -122.455424 0 6387ft 273kts
13-Feb-21 14:59 47.555378 -122.454293 2 5108ft 250kts
13-Feb-21 15:00 47.620538 -122.456842 1 3736ft 226kts
13-Feb-21 15:01 47.680167 -122.458397 1 3057ft 211kts
13-Feb-21 15:02 47.738814 -122.458080 1 3019ft 211kts
13-Feb-21 15:03 47.797416 -122.457802 2 3003ft 210kts
13-Feb-21 15:04 47.819491 -122.394271 96 2994ft 199kts
13-Feb-21 15:05 47.798076 -122.324522 154 2997ft 201kts
13-Feb-21 15:06 47.742305 -122.316611 178 2993ft 203kts
13-Feb-21 15:07 47.690321 -122.306628 176 2990ft 203kts
13-Feb-21 15:08 47.634661 -122.306372 178 3010ft 185kts
13-Feb-21 15:08 47.593042 -122.306608 178 2999ft 177kts
13-Feb-21 15:10 47.539057 -122.307040 177 1902ft 164kts
13-Feb-21 15:11 47.496819 -122.307424 178 1113ft 136kts
13-Feb-21 15:11 47.466737 -122.307810 177 527ft 124kts
13-Feb-21 15:13 47.445923 -122.306887 76 389ft 10kts
13-Feb-21 15:13 47.446154 -122.306441 32 390ft 1kts
13-Feb-21 15:14 47.447669 -122.304349 93 392ft 12kts
13-Feb-21 15:15 47.446775 -122.303890 217 390ft 0kts

Navigation Log

Ident Type
Flight plan parsing failed, navigation log unavailable